sensor_id;sensor_type;location;lat;lon;timestamp;temperature;humidity
28336;DHT22;15592;53.656;7.276;2023-03-04T00:00:11;6.10;99.90
28336;DHT22;15592;53.656;7.276;2023-03-04T00:02:37;6.10;99.90
28336;DHT22;15592;53.656;7.276;2023-03-04T00:05:02;6.10;99.90
28336;DHT22;15592;53.656;7.276;2023-03-04T00:07:28;6.10;99.90
28336;DHT22;15592;53.656;7.276;2023-03-04T00:09:54;6.10;99.90
28336;DHT22;15592;53.656;7.276;2023-03-04T00:12:20;6.10;99.90
28336;DHT22;15592;53.656;7.276;2023-03-04T00:14:45;6.20;99.90
28336;DHT22;15592;53.656;7.276;2023-03-04T00:17:11;6.10;99.90
28336;DHT22;15592;53.656;7.276;2023-03-04T00:19:37;6.10;99.90
28336;DHT22;15592;53.656;7.276;2023-03-04T00:22:03;6.10;99.90
28336;DHT22;15592;53.656;7.276;2023-03-04T00:24:28;6.20;99.90
28336;DHT22;15592;53.656;7.276;2023-03-04T00:26:54;6.10;99.90
28336;DHT22;15592;53.656;7.276;2023-03-04T00:29:20;6.10;99.90
28336;DHT22;15592;53.656;7.276;2023-03-04T00:31:46;6.20;99.90
28336;DHT22;15592;53.656;7.276;2023-03-04T00:34:12;6.20;99.90
28336;DHT22;15592;53.656;7.276;2023-03-04T00:36:38;6.20;99.90
28336;DHT22;15592;53.656;7.276;2023-03-04T00:39:03;6.10;99.90
28336;DHT22;15592;53.656;7.276;2023-03-04T00:41:29;6.10;99.90
28336;DHT22;15592;53.656;7.276;2023-03-04T00:43:55;6.10;99.90
28336;DHT22;15592;53.656;7.276;2023-03-04T00:46:20;6.10;99.90
28336;DHT22;15592;53.656;7.276;2023-03-04T00:48:46;6.10;99.90
28336;DHT22;15592;53.656;7.276;2023-03-04T00:51:11;6.10;99.90
28336;DHT22;15592;53.656;7.276;2023-03-04T00:53:37;6.10;99.90
28336;DHT22;15592;53.656;7.276;2023-03-04T00:56:03;6.10;99.90
28336;DHT22;15592;53.656;7.276;2023-03-04T00:58:28;6.20;99.90
28336;DHT22;15592;53.656;7.276;2023-03-04T01:00:54;6.20;99.90
28336;DHT22;15592;53.656;7.276;2023-03-04T01:03:19;6.20;99.90
28336;DHT22;15592;53.656;7.276;2023-03-04T01:05:45;6.10;99.90
28336;DHT22;15592;53.656;7.276;2023-03-04T01:08:11;6.20;99.90
28336;DHT22;15592;53.656;7.276;2023-03-04T01:10:36;6.20;99.90
28336;DHT22;15592;53.656;7.276;2023-03-04T01:13:02;6.20;99.90
28336;DHT22;15592;53.656;7.276;2023-03-04T01:15:28;6.20;99.90
28336;DHT22;15592;53.656;7.276;2023-03-04T01:17:53;6.20;99.90
28336;DHT22;15592;53.656;7.276;2023-03-04T01:20:19;6.20;99.90
28336;DHT22;15592;53.656;7.276;2023-03-04T01:22:45;6.10;99.90
28336;DHT22;15592;53.656;7.276;2023-03-04T01:25:11;6.10;99.90
28336;DHT22;15592;53.656;7.276;2023-03-04T01:27:36;6.10;99.90
28336;DHT22;15592;53.656;7.276;2023-03-04T01:30:03;6.10;99.90
28336;DHT22;15592;53.656;7.276;2023-03-04T01:32:29;6.10;99.90
28336;DHT22;15592;53.656;7.276;2023-03-04T01:34:55;6.10;99.90
28336;DHT22;15592;53.656;7.276;2023-03-04T01:37:20;6.10;99.90
28336;DHT22;15592;53.656;7.276;2023-03-04T01:39:46;6.10;99.90
28336;DHT22;15592;53.656;7.276;2023-03-04T01:42:22;6.10;99.90
28336;DHT22;15592;53.656;7.276;2023-03-04T01:44:50;6.10;99.90
28336;DHT22;15592;53.656;7.276;2023-03-04T01:47:16;6.10;99.90
28336;DHT22;15592;53.656;7.276;2023-03-04T01:49:42;6.10;99.90
28336;DHT22;15592;53.656;7.276;2023-03-04T01:52:11;6.10;99.90
28336;DHT22;15592;53.656;7.276;2023-03-04T01:54:37;6.10;99.90
28336;DHT22;15592;53.656;7.276;2023-03-04T01:57:22;6.10;99.90
28336;DHT22;15592;53.656;7.276;2023-03-04T02:02:49;6.10;99.90
28336;DHT22;15592;53.656;7.276;2023-03-04T02:05:15;6.10;99.90
28336;DHT22;15592;53.656;7.276;2023-03-04T02:07:41;6.10;99.90
28336;DHT22;15592;53.656;7.276;2023-03-04T02:10:08;6.20;99.90
28336;DHT22;15592;53.656;7.276;2023-03-04T02:12:34;6.20;99.90
28336;DHT22;15592;53.656;7.276;2023-03-04T02:14:59;6.20;99.90
28336;DHT22;15592;53.656;7.276;2023-03-04T02:17:26;6.10;99.90
28336;DHT22;15592;53.656;7.276;2023-03-04T02:19:55;6.20;99.90
28336;DHT22;15592;53.656;7.276;2023-03-04T02:22:23;6.10;99.90
28336;DHT22;15592;53.656;7.276;2023-03-04T02:24:55;6.10;99.90
28336;DHT22;15592;53.656;7.276;2023-03-04T02:27:22;6.20;99.90
28336;DHT22;15592;53.656;7.276;2023-03-04T02:29:48;6.20;99.90
28336;DHT22;15592;53.656;7.276;2023-03-04T02:32:15;6.10;99.90
28336;DHT22;15592;53.656;7.276;2023-03-04T02:34:46;6.10;99.90
28336;DHT22;15592;53.656;7.276;2023-03-04T02:37:13;6.20;99.90
28336;DHT22;15592;53.656;7.276;2023-03-04T02:39:41;6.10;99.90
28336;DHT22;15592;53.656;7.276;2023-03-04T02:42:08;6.10;99.90
28336;DHT22;15592;53.656;7.276;2023-03-04T02:44:36;6.10;99.90
28336;DHT22;15592;53.656;7.276;2023-03-04T02:47:04;6.20;99.90
28336;DHT22;15592;53.656;7.276;2023-03-04T02:49:30;6.20;99.90
28336;DHT22;15592;53.656;7.276;2023-03-04T02:52:06;6.20;99.90
28336;DHT22;15592;53.656;7.276;2023-03-04T02:54:32;6.20;99.90
28336;DHT22;15592;53.656;7.276;2023-03-04T02:57:00;6.20;99.90
28336;DHT22;15592;53.656;7.276;2023-03-04T02:59:26;6.20;99.90
28336;DHT22;15592;53.656;7.276;2023-03-04T03:01:53;6.20;99.90
28336;DHT22;15592;53.656;7.276;2023-03-04T03:04:19;6.20;99.90
28336;DHT22;15592;53.656;7.276;2023-03-04T03:06:45;6.20;99.90
28336;DHT22;15592;53.656;7.276;2023-03-04T03:09:11;6.20;99.90
28336;DHT22;15592;53.656;7.276;2023-03-04T03:11:37;6.20;99.90
28336;DHT22;15592;53.656;7.276;2023-03-04T03:14:03;6.20;99.90
28336;DHT22;15592;53.656;7.276;2023-03-04T03:16:29;6.20;99.90
28336;DHT22;15592;53.656;7.276;2023-03-04T03:18:55;6.20;99.90
28336;DHT22;15592;53.656;7.276;2023-03-04T03:21:20;6.30;99.90
28336;DHT22;15592;53.656;7.276;2023-03-04T03:23:46;6.30;99.90
28336;DHT22;15592;53.656;7.276;2023-03-04T03:26:11;6.20;99.90
28336;DHT22;15592;53.656;7.276;2023-03-04T03:28:37;6.30;99.90
28336;DHT22;15592;53.656;7.276;2023-03-04T03:31:03;6.30;99.90
28336;DHT22;15592;53.656;7.276;2023-03-04T03:33:29;6.30;99.90
28336;DHT22;15592;53.656;7.276;2023-03-04T03:35:54;6.30;99.90
28336;DHT22;15592;53.656;7.276;2023-03-04T03:38:20;6.30;99.90
28336;DHT22;15592;53.656;7.276;2023-03-04T03:40:45;6.30;99.90
28336;DHT22;15592;53.656;7.276;2023-03-04T03:43:11;6.30;99.90
28336;DHT22;15592;53.656;7.276;2023-03-04T03:45:37;6.30;99.90
28336;DHT22;15592;53.656;7.276;2023-03-04T03:48:03;6.30;99.90
28336;DHT22;15592;53.656;7.276;2023-03-04T03:50:28;6.30;99.90
28336;DHT22;15592;53.656;7.276;2023-03-04T03:52:54;6.30;99.90
28336;DHT22;15592;53.656;7.276;2023-03-04T03:55:21;6.30;99.90
28336;DHT22;15592;53.656;7.276;2023-03-04T03:57:46;6.30;99.90
28336;DHT22;15592;53.656;7.276;2023-03-04T04:00:13;6.30;99.90
28336;DHT22;15592;53.656;7.276;2023-03-04T04:02:39;6.30;99.90
28336;DHT22;15592;53.656;7.276;2023-03-04T04:05:06;6.30;99.90
28336;DHT22;15592;53.656;7.276;2023-03-04T04:07:32;6.20;99.90
28336;DHT22;15592;53.656;7.276;2023-03-04T04:09:57;6.20;99.90
28336;DHT22;15592;53.656;7.276;2023-03-04T04:12:23;6.20;99.90
28336;DHT22;15592;53.656;7.276;2023-03-04T04:14:49;6.20;99.90
28336;DHT22;15592;53.656;7.276;2023-03-04T04:17:15;6.20;99.90
28336;DHT22;15592;53.656;7.276;2023-03-04T04:19:40;6.10;99.90
28336;DHT22;15592;53.656;7.276;2023-03-04T04:22:07;6.10;99.90
28336;DHT22;15592;53.656;7.276;2023-03-04T04:24:36;6.10;99.90
28336;DHT22;15592;53.656;7.276;2023-03-04T04:27:02;6.10;99.90
28336;DHT22;15592;53.656;7.276;2023-03-04T04:29:28;6.10;99.90
28336;DHT22;15592;53.656;7.276;2023-03-04T04:31:54;6.10;99.90
28336;DHT22;15592;53.656;7.276;2023-03-04T04:34:20;6.10;99.90
28336;DHT22;15592;53.656;7.276;2023-03-04T04:36:46;6.10;99.90
28336;DHT22;15592;53.656;7.276;2023-03-04T04:39:11;6.00;99.90
28336;DHT22;15592;53.656;7.276;2023-03-04T04:41:41;6.00;99.90
28336;DHT22;15592;53.656;7.276;2023-03-04T04:44:08;6.00;99.90
28336;DHT22;15592;53.656;7.276;2023-03-04T04:46:34;6.10;99.90
28336;DHT22;15592;53.656;7.276;2023-03-04T04:49:00;6.10;99.90
28336;DHT22;15592;53.656;7.276;2023-03-04T04:51:26;6.00;99.90
28336;DHT22;15592;53.656;7.276;2023-03-04T04:53:51;6.10;99.90
28336;DHT22;15592;53.656;7.276;2023-03-04T04:56:20;6.10;99.90
28336;DHT22;15592;53.656;7.276;2023-03-04T04:58:46;6.10;99.90
28336;DHT22;15592;53.656;7.276;2023-03-04T05:01:13;6.10;99.90
28336;DHT22;15592;53.656;7.276;2023-03-04T05:03:39;6.10;99.90
28336;DHT22;15592;53.656;7.276;2023-03-04T05:06:07;6.10;99.90
28336;DHT22;15592;53.656;7.276;2023-03-04T05:08:33;6.10;99.90
28336;DHT22;15592;53.656;7.276;2023-03-04T05:10:59;6.00;99.90
28336;DHT22;15592;53.656;7.276;2023-03-04T05:13:25;6.00;99.90
28336;DHT22;15592;53.656;7.276;2023-03-04T05:15:52;5.90;99.90
28336;DHT22;15592;53.656;7.276;2023-03-04T05:18:20;5.90;99.90
28336;DHT22;15592;53.656;7.276;2023-03-04T05:20:53;5.90;99.90
28336;DHT22;15592;53.656;7.276;2023-03-04T05:23:19;5.90;99.90
28336;DHT22;15592;53.656;7.276;2023-03-04T05:25:45;5.90;99.90
28336;DHT22;15592;53.656;7.276;2023-03-04T05:28:11;5.90;99.90
28336;DHT22;15592;53.656;7.276;2023-03-04T05:30:38;5.80;99.90
28336;DHT22;15592;53.656;7.276;2023-03-04T05:33:05;5.90;99.90
28336;DHT22;15592;53.656;7.276;2023-03-04T05:35:31;5.90;99.90
28336;DHT22;15592;53.656;7.276;2023-03-04T05:37:57;5.80;99.90
28336;DHT22;15592;53.656;7.276;2023-03-04T05:40:22;5.80;99.90
28336;DHT22;15592;53.656;7.276;2023-03-04T05:42:50;5.70;99.90
28336;DHT22;15592;53.656;7.276;2023-03-04T05:45:15;5.70;99.90
28336;DHT22;15592;53.656;7.276;2023-03-04T05:47:41;5.70;99.90
28336;DHT22;15592;53.656;7.276;2023-03-04T05:50:07;5.70;99.90
28336;DHT22;15592;53.656;7.276;2023-03-04T05:52:33;5.60;99.90
28336;DHT22;15592;53.656;7.276;2023-03-04T05:54:58;5.60;99.90
28336;DHT22;15592;53.656;7.276;2023-03-04T05:57:24;5.60;99.90
28336;DHT22;15592;53.656;7.276;2023-03-04T05:59:50;5.60;99.90
28336;DHT22;15592;53.656;7.276;2023-03-04T06:02:15;5.70;99.90
28336;DHT22;15592;53.656;7.276;2023-03-04T06:04:41;5.70;99.90
28336;DHT22;15592;53.656;7.276;2023-03-04T06:07:06;5.70;99.90
28336;DHT22;15592;53.656;7.276;2023-03-04T06:09:32;5.80;99.90
28336;DHT22;15592;53.656;7.276;2023-03-04T06:11:58;5.80;99.90
28336;DHT22;15592;53.656;7.276;2023-03-04T06:14:23;5.80;99.90
28336;DHT22;15592;53.656;7.276;2023-03-04T06:16:49;5.80;99.90
28336;DHT22;15592;53.656;7.276;2023-03-04T06:19:14;5.80;99.90
28336;DHT22;15592;53.656;7.276;2023-03-04T06:21:40;5.80;99.90
28336;DHT22;15592;53.656;7.276;2023-03-04T06:24:05;5.70;99.90
28336;DHT22;15592;53.656;7.276;2023-03-04T06:26:31;5.70;99.90
28336;DHT22;15592;53.656;7.276;2023-03-04T06:28:57;5.70;99.90
28336;DHT22;15592;53.656;7.276;2023-03-04T06:31:22;5.70;99.90
28336;DHT22;15592;53.656;7.276;2023-03-04T06:33:48;5.80;99.90
28336;DHT22;15592;53.656;7.276;2023-03-04T06:36:13;5.80;99.90
28336;DHT22;15592;53.656;7.276;2023-03-04T06:38:39;5.80;99.90
28336;DHT22;15592;53.656;7.276;2023-03-04T06:41:06;5.80;99.90
28336;DHT22;15592;53.656;7.276;2023-03-04T06:43:32;5.80;99.90
28336;DHT22;15592;53.656;7.276;2023-03-04T06:45:58;5.90;99.90
28336;DHT22;15592;53.656;7.276;2023-03-04T06:48:23;5.80;99.90
28336;DHT22;15592;53.656;7.276;2023-03-04T06:50:49;5.80;99.90
28336;DHT22;15592;53.656;7.276;2023-03-04T06:53:15;5.80;99.90
28336;DHT22;15592;53.656;7.276;2023-03-04T06:55:40;5.80;99.90
28336;DHT22;15592;53.656;7.276;2023-03-04T06:58:06;5.80;99.90
28336;DHT22;15592;53.656;7.276;2023-03-04T07:00:31;5.80;99.90
28336;DHT22;15592;53.656;7.276;2023-03-04T07:02:58;5.80;99.90
28336;DHT22;15592;53.656;7.276;2023-03-04T07:05:24;5.80;99.90
28336;DHT22;15592;53.656;7.276;2023-03-04T07:07:49;5.80;99.90
28336;DHT22;15592;53.656;7.276;2023-03-04T07:10:16;5.90;99.90
28336;DHT22;15592;53.656;7.276;2023-03-04T07:12:42;5.80;99.90
28336;DHT22;15592;53.656;7.276;2023-03-04T07:15:08;5.90;99.90
28336;DHT22;15592;53.656;7.276;2023-03-04T07:17:34;5.90;99.90
28336;DHT22;15592;53.656;7.276;2023-03-04T07:19:59;5.80;99.90
28336;DHT22;15592;53.656;7.276;2023-03-04T07:22:25;5.90;99.90
28336;DHT22;15592;53.656;7.276;2023-03-04T07:24:50;5.90;99.90
28336;DHT22;15592;53.656;7.276;2023-03-04T07:27:16;5.90;99.90
28336;DHT22;15592;53.656;7.276;2023-03-04T07:29:41;5.90;99.90
28336;DHT22;15592;53.656;7.276;2023-03-04T07:32:08;5.90;99.90
28336;DHT22;15592;53.656;7.276;2023-03-04T07:34:34;5.90;99.90
28336;DHT22;15592;53.656;7.276;2023-03-04T07:36:59;5.90;99.90
28336;DHT22;15592;53.656;7.276;2023-03-04T07:39:25;5.90;99.90
28336;DHT22;15592;53.656;7.276;2023-03-04T07:41:51;5.90;99.90
28336;DHT22;15592;53.656;7.276;2023-03-04T07:44:16;5.90;99.90
28336;DHT22;15592;53.656;7.276;2023-03-04T07:46:42;5.80;99.90
28336;DHT22;15592;53.656;7.276;2023-03-04T07:49:07;5.80;99.90
28336;DHT22;15592;53.656;7.276;2023-03-04T07:51:33;5.80;99.90
28336;DHT22;15592;53.656;7.276;2023-03-04T07:54:00;5.80;99.90
28336;DHT22;15592;53.656;7.276;2023-03-04T07:56:29;5.80;99.90
28336;DHT22;15592;53.656;7.276;2023-03-04T07:58:55;5.80;99.90
28336;DHT22;15592;53.656;7.276;2023-03-04T08:01:33;5.80;99.90
28336;DHT22;15592;53.656;7.276;2023-03-04T08:04:00;5.90;99.90
28336;DHT22;15592;53.656;7.276;2023-03-04T08:06:28;5.90;99.90
28336;DHT22;15592;53.656;7.276;2023-03-04T08:08:59;5.90;99.90
28336;DHT22;15592;53.656;7.276;2023-03-04T08:11:26;5.80;99.90
28336;DHT22;15592;53.656;7.276;2023-03-04T08:13:53;5.90;99.90
28336;DHT22;15592;53.656;7.276;2023-03-04T08:16:20;5.80;99.90
28336;DHT22;15592;53.656;7.276;2023-03-04T08:18:50;5.80;99.90
28336;DHT22;15592;53.656;7.276;2023-03-04T08:21:17;5.80;99.90
28336;DHT22;15592;53.656;7.276;2023-03-04T08:23:45;5.80;99.90
28336;DHT22;15592;53.656;7.276;2023-03-04T08:26:17;5.70;99.90
28336;DHT22;15592;53.656;7.276;2023-03-04T08:28:43;5.70;99.90
28336;DHT22;15592;53.656;7.276;2023-03-04T08:31:11;5.60;99.90
28336;DHT22;15592;53.656;7.276;2023-03-04T08:33:37;5.70;99.90
28336;DHT22;15592;53.656;7.276;2023-03-04T08:36:03;5.70;99.90
28336;DHT22;15592;53.656;7.276;2023-03-04T08:38:29;5.70;99.90
28336;DHT22;15592;53.656;7.276;2023-03-04T08:40:56;5.80;99.90
28336;DHT22;15592;53.656;7.276;2023-03-04T08:43:23;5.80;99.90
28336;DHT22;15592;53.656;7.276;2023-03-04T08:45:49;5.80;99.90
28336;DHT22;15592;53.656;7.276;2023-03-04T08:48:16;5.80;99.90
28336;DHT22;15592;53.656;7.276;2023-03-04T08:50:43;5.80;99.90
28336;DHT22;15592;53.656;7.276;2023-03-04T08:53:09;5.80;99.90
28336;DHT22;15592;53.656;7.276;2023-03-04T08:55:37;5.90;99.90
28336;DHT22;15592;53.656;7.276;2023-03-04T08:58:03;5.90;99.90
28336;DHT22;15592;53.656;7.276;2023-03-04T09:00:29;5.90;99.90
28336;DHT22;15592;53.656;7.276;2023-03-04T09:02:55;5.90;99.90
28336;DHT22;15592;53.656;7.276;2023-03-04T09:05:20;5.90;99.90
28336;DHT22;15592;53.656;7.276;2023-03-04T09:07:46;5.90;99.90
28336;DHT22;15592;53.656;7.276;2023-03-04T09:10:12;5.90;99.90
28336;DHT22;15592;53.656;7.276;2023-03-04T09:12:37;5.80;99.90
28336;DHT22;15592;53.656;7.276;2023-03-04T09:15:04;5.70;99.90
28336;DHT22;15592;53.656;7.276;2023-03-04T09:17:31;5.60;99.90
28336;DHT22;15592;53.656;7.276;2023-03-04T09:19:56;5.70;99.90
28336;DHT22;15592;53.656;7.276;2023-03-04T09:22:22;5.70;99.90
28336;DHT22;15592;53.656;7.276;2023-03-04T09:24:47;5.70;99.90
28336;DHT22;15592;53.656;7.276;2023-03-04T09:27:13;5.70;99.90
28336;DHT22;15592;53.656;7.276;2023-03-04T09:29:39;5.60;99.90
28336;DHT22;15592;53.656;7.276;2023-03-04T09:32:05;5.70;99.90
28336;DHT22;15592;53.656;7.276;2023-03-04T09:34:30;5.70;99.90
28336;DHT22;15592;53.656;7.276;2023-03-04T09:36:56;5.70;99.90
28336;DHT22;15592;53.656;7.276;2023-03-04T09:39:21;5.70;99.90
28336;DHT22;15592;53.656;7.276;2023-03-04T09:41:56;5.80;99.90
28336;DHT22;15592;53.656;7.276;2023-03-04T09:44:23;5.80;99.90
28336;DHT22;15592;53.656;7.276;2023-03-04T09:46:51;5.80;99.90
28336;DHT22;15592;53.656;7.276;2023-03-04T09:49:18;5.80;99.90
28336;DHT22;15592;53.656;7.276;2023-03-04T10:00:06;5.80;99.90
28336;DHT22;15592;53.656;7.276;2023-03-04T10:05:26;5.90;99.90
28336;DHT22;15592;53.656;7.276;2023-03-04T10:08:20;5.90;99.90
28336;DHT22;15592;53.656;7.276;2023-03-04T10:10:49;5.90;99.90
28336;DHT22;15592;53.656;7.276;2023-03-04T10:13:22;5.80;99.90
28336;DHT22;15592;53.656;7.276;2023-03-04T10:15:50;5.80;99.90
28336;DHT22;15592;53.656;7.276;2023-03-04T10:18:21;5.80;99.90
28336;DHT22;15592;53.656;7.276;2023-03-04T10:20:58;5.60;99.90
28336;DHT22;15592;53.656;7.276;2023-03-04T10:23:27;5.60;99.90
28336;DHT22;15592;53.656;7.276;2023-03-04T10:25:53;5.70;99.90
28336;DHT22;15592;53.656;7.276;2023-03-04T10:28:24;5.70;99.90
28336;DHT22;15592;53.656;7.276;2023-03-04T10:31:01;5.70;99.90
28336;DHT22;15592;53.656;7.276;2023-03-04T10:33:41;5.60;99.90
28336;DHT22;15592;53.656;7.276;2023-03-04T10:39:11;5.30;99.90
28336;DHT22;15592;53.656;7.276;2023-03-04T10:41:42;5.30;99.90
28336;DHT22;15592;53.656;7.276;2023-03-04T10:46:45;5.60;99.90
28336;DHT22;15592;53.656;7.276;2023-03-04T10:49:14;5.70;99.90
28336;DHT22;15592;53.656;7.276;2023-03-04T10:51:48;5.80;99.90
28336;DHT22;15592;53.656;7.276;2023-03-04T10:57:10;6.10;99.90
28336;DHT22;15592;53.656;7.276;2023-03-04T10:59:48;6.20;99.90
28336;DHT22;15592;53.656;7.276;2023-03-04T11:02:22;6.30;99.90
28336;DHT22;15592;53.656;7.276;2023-03-04T11:04:51;6.20;99.90
28336;DHT22;15592;53.656;7.276;2023-03-04T11:07:18;6.10;99.90
28336;DHT22;15592;53.656;7.276;2023-03-04T11:09:44;6.00;99.90
28336;DHT22;15592;53.656;7.276;2023-03-04T11:12:13;5.90;99.90
28336;DHT22;15592;53.656;7.276;2023-03-04T11:14:46;5.80;99.90
28336;DHT22;15592;53.656;7.276;2023-03-04T11:19:44;5.80;99.90
28336;DHT22;15592;53.656;7.276;2023-03-04T11:22:16;5.80;99.90
28336;DHT22;15592;53.656;7.276;2023-03-04T11:24:43;5.90;99.90
28336;DHT22;15592;53.656;7.276;2023-03-04T11:27:18;5.90;99.90
28336;DHT22;15592;53.656;7.276;2023-03-04T11:29:54;5.90;99.90
28336;DHT22;15592;53.656;7.276;2023-03-04T11:32:32;5.70;99.90
28336;DHT22;15592;53.656;7.276;2023-03-04T11:35:14;5.80;99.90
28336;DHT22;15592;53.656;7.276;2023-03-04T11:37:52;5.60;99.90
28336;DHT22;15592;53.656;7.276;2023-03-04T11:40:35;5.50;99.90
28336;DHT22;15592;53.656;7.276;2023-03-04T11:43:51;5.40;99.90
28336;DHT22;15592;53.656;7.276;2023-03-04T11:56:57;6.00;99.90
28336;DHT22;15592;53.656;7.276;2023-03-04T12:02:14;6.20;99.90
28336;DHT22;15592;53.656;7.276;2023-03-04T12:05:16;6.10;99.90
28336;DHT22;15592;53.656;7.276;2023-03-04T12:10:48;6.00;99.90
28336;DHT22;15592;53.656;7.276;2023-03-04T12:13:38;6.00;99.90
28336;DHT22;15592;53.656;7.276;2023-03-04T12:16:31;5.90;99.90
28336;DHT22;15592;53.656;7.276;2023-03-04T12:19:25;6.00;99.90
28336;DHT22;15592;53.656;7.276;2023-03-04T12:22:10;6.00;99.90
28336;DHT22;15592;53.656;7.276;2023-03-04T12:27:56;6.20;99.90
28336;DHT22;15592;53.656;7.276;2023-03-04T12:30:33;6.00;99.90
28336;DHT22;15592;53.656;7.276;2023-03-04T12:35:41;5.70;99.90
28336;DHT22;15592;53.656;7.276;2023-03-04T12:38:29;5.50;99.90
28336;DHT22;15592;53.656;7.276;2023-03-04T12:43:54;5.40;99.90
28336;DHT22;15592;53.656;7.276;2023-03-04T12:46:53;5.50;99.90
28336;DHT22;15592;53.656;7.276;2023-03-04T12:52:02;5.70;99.90
28336;DHT22;15592;53.656;7.276;2023-03-04T12:54:36;5.80;99.90
28336;DHT22;15592;53.656;7.276;2023-03-04T12:57:10;5.90;99.90
28336;DHT22;15592;53.656;7.276;2023-03-04T12:59:42;5.80;99.90
28336;DHT22;15592;53.656;7.276;2023-03-04T13:04:46;5.80;99.90
28336;DHT22;15592;53.656;7.276;2023-03-04T13:07:30;5.60;99.90
28336;DHT22;15592;53.656;7.276;2023-03-04T13:10:26;5.50;99.90
28336;DHT22;15592;53.656;7.276;2023-03-04T13:12:57;5.50;99.90
28336;DHT22;15592;53.656;7.276;2023-03-04T13:18:14;5.60;99.90
28336;DHT22;15592;53.656;7.276;2023-03-04T13:23:39;5.70;99.90
28336;DHT22;15592;53.656;7.276;2023-03-04T13:26:34;5.80;99.90
28336;DHT22;15592;53.656;7.276;2023-03-04T13:32:04;5.90;99.90
28336;DHT22;15592;53.656;7.276;2023-03-04T13:34:50;5.90;99.90
28336;DHT22;15592;53.656;7.276;2023-03-04T13:37:38;6.00;99.90
28336;DHT22;15592;53.656;7.276;2023-03-04T13:42:48;5.90;99.90
28336;DHT22;15592;53.656;7.276;2023-03-04T13:45:34;6.00;99.90
28336;DHT22;15592;53.656;7.276;2023-03-04T13:48:02;6.00;99.90
28336;DHT22;15592;53.656;7.276;2023-03-04T13:50:35;5.80;99.90
28336;DHT22;15592;53.656;7.276;2023-03-04T13:53:36;5.60;99.90
28336;DHT22;15592;53.656;7.276;2023-03-04T13:56:21;5.40;99.90
28336;DHT22;15592;53.656;7.276;2023-03-04T13:58:51;5.40;99.90
28336;DHT22;15592;53.656;7.276;2023-03-04T14:01:30;5.40;99.90
28336;DHT22;15592;53.656;7.276;2023-03-04T14:04:00;5.50;99.90
28336;DHT22;15592;53.656;7.276;2023-03-04T14:06:28;5.60;99.90
28336;DHT22;15592;53.656;7.276;2023-03-04T14:08:55;5.60;99.90
28336;DHT22;15592;53.656;7.276;2023-03-04T14:11:34;5.60;99.90
28336;DHT22;15592;53.656;7.276;2023-03-04T14:14:11;5.60;99.90
28336;DHT22;15592;53.656;7.276;2023-03-04T14:16:44;5.70;99.90
28336;DHT22;15592;53.656;7.276;2023-03-04T14:19:38;5.70;99.90
28336;DHT22;15592;53.656;7.276;2023-03-04T14:22:36;5.80;99.90
28336;DHT22;15592;53.656;7.276;2023-03-04T14:35:48;5.40;99.90
28336;DHT22;15592;53.656;7.276;2023-03-04T14:38:28;5.20;99.90
28336;DHT22;15592;53.656;7.276;2023-03-04T14:41:06;5.10;99.90
28336;DHT22;15592;53.656;7.276;2023-03-04T14:43:53;5.00;99.90
28336;DHT22;15592;53.656;7.276;2023-03-04T14:48:52;5.10;99.90
28336;DHT22;15592;53.656;7.276;2023-03-04T14:57:23;5.30;99.90
28336;DHT22;15592;53.656;7.276;2023-03-04T14:59:51;5.30;99.90
28336;DHT22;15592;53.656;7.276;2023-03-04T15:02:29;5.10;99.90
28336;DHT22;15592;53.656;7.276;2023-03-04T15:05:48;5.00;99.90
28336;DHT22;15592;53.656;7.276;2023-03-04T15:07:57;4.90;99.90
28336;DHT22;15592;53.656;7.276;2023-03-04T15:10:26;4.90;99.90
28336;DHT22;15592;53.656;7.276;2023-03-04T15:12:54;4.90;99.90
28336;DHT22;15592;53.656;7.276;2023-03-04T15:15:38;5.00;99.90
28336;DHT22;15592;53.656;7.276;2023-03-04T15:20:39;5.10;99.90
28336;DHT22;15592;53.656;7.276;2023-03-04T15:23:05;5.10;99.90
28336;DHT22;15592;53.656;7.276;2023-03-04T15:25:39;5.10;99.90
28336;DHT22;15592;53.656;7.276;2023-03-04T15:28:14;5.10;99.90
28336;DHT22;15592;53.656;7.276;2023-03-04T15:30:41;5.00;99.90
28336;DHT22;15592;53.656;7.276;2023-03-04T15:33:11;5.00;99.90
28336;DHT22;15592;53.656;7.276;2023-03-04T15:35:37;5.00;99.90
28336;DHT22;15592;53.656;7.276;2023-03-04T15:38:07;5.00;99.90
28336;DHT22;15592;53.656;7.276;2023-03-04T15:40:39;5.00;99.90
28336;DHT22;15592;53.656;7.276;2023-03-04T15:43:09;5.00;99.90
28336;DHT22;15592;53.656;7.276;2023-03-04T15:45:37;5.00;99.90
28336;DHT22;15592;53.656;7.276;2023-03-04T15:48:04;5.10;99.90
28336;DHT22;15592;53.656;7.276;2023-03-04T15:50:36;4.90;99.90
28336;DHT22;15592;53.656;7.276;2023-03-04T15:53:06;4.80;99.90
28336;DHT22;15592;53.656;7.276;2023-03-04T15:55:33;4.70;99.90
28336;DHT22;15592;53.656;7.276;2023-03-04T15:57:59;4.70;99.90
28336;DHT22;15592;53.656;7.276;2023-03-04T16:00:26;4.70;99.90
28336;DHT22;15592;53.656;7.276;2023-03-04T16:02:52;4.70;99.90
28336;DHT22;15592;53.656;7.276;2023-03-04T16:05:17;4.70;99.90
28336;DHT22;15592;53.656;7.276;2023-03-04T16:07:44;4.70;99.90
28336;DHT22;15592;53.656;7.276;2023-03-04T16:10:40;4.70;99.90
28336;DHT22;15592;53.656;7.276;2023-03-04T16:13:12;4.50;99.90
28336;DHT22;15592;53.656;7.276;2023-03-04T16:15:38;4.50;99.90
28336;DHT22;15592;53.656;7.276;2023-03-04T16:18:04;4.50;99.90
28336;DHT22;15592;53.656;7.276;2023-03-04T16:20:32;4.50;99.90
28336;DHT22;15592;53.656;7.276;2023-03-04T16:24:13;4.60;99.90
28336;DHT22;15592;53.656;7.276;2023-03-04T16:26:33;4.30;99.90
28336;DHT22;15592;53.656;7.276;2023-03-04T16:29:07;4.20;99.90
28336;DHT22;15592;53.656;7.276;2023-03-04T16:31:33;4.20;99.90
28336;DHT22;15592;53.656;7.276;2023-03-04T16:34:02;4.30;99.90
28336;DHT22;15592;53.656;7.276;2023-03-04T16:36:28;4.30;99.90
28336;DHT22;15592;53.656;7.276;2023-03-04T16:38:54;4.20;99.90
28336;DHT22;15592;53.656;7.276;2023-03-04T16:41:25;4.10;99.90
28336;DHT22;15592;53.656;7.276;2023-03-04T16:43:52;4.10;99.90
28336;DHT22;15592;53.656;7.276;2023-03-04T16:46:18;4.10;99.90
28336;DHT22;15592;53.656;7.276;2023-03-04T16:48:46;4.10;99.90
28336;DHT22;15592;53.656;7.276;2023-03-04T16:51:14;4.10;99.90
28336;DHT22;15592;53.656;7.276;2023-03-04T16:53:43;4.20;99.90
28336;DHT22;15592;53.656;7.276;2023-03-04T16:56:13;4.20;99.90
28336;DHT22;15592;53.656;7.276;2023-03-04T16:58:39;4.20;99.90
28336;DHT22;15592;53.656;7.276;2023-03-04T17:01:05;4.30;99.90
28336;DHT22;15592;53.656;7.276;2023-03-04T17:03:31;4.30;99.90
28336;DHT22;15592;53.656;7.276;2023-03-04T17:05:56;4.30;99.90
28336;DHT22;15592;53.656;7.276;2023-03-04T17:08:22;4.40;99.90
28336;DHT22;15592;53.656;7.276;2023-03-04T17:10:48;4.40;99.90
28336;DHT22;15592;53.656;7.276;2023-03-04T17:13:14;4.40;99.90
28336;DHT22;15592;53.656;7.276;2023-03-04T17:15:43;4.40;99.90
28336;DHT22;15592;53.656;7.276;2023-03-04T17:18:11;4.40;99.90
28336;DHT22;15592;53.656;7.276;2023-03-04T17:20:36;4.30;99.90
28336;DHT22;15592;53.656;7.276;2023-03-04T17:23:02;4.40;99.90
28336;DHT22;15592;53.656;7.276;2023-03-04T17:25:28;4.50;99.90